createdAt,value
2019-03-08T00:01:42.760Z,11.37
2019-03-08T00:04:12.342Z,11.12
2019-03-08T00:06:41.997Z,11.07
2019-03-08T00:09:11.657Z,11.00
2019-03-08T00:11:41.291Z,11.00
2019-03-08T00:14:10.766Z,10.82
2019-03-08T00:16:41.313Z,10.77
2019-03-08T00:19:11.040Z,10.68
2019-03-08T00:21:41.292Z,10.64
2019-03-08T00:24:11.575Z,10.56
2019-03-08T00:26:41.742Z,10.59
2019-03-08T00:29:12.106Z,10.59
2019-03-08T00:31:42.317Z,10.49
2019-03-08T00:34:12.390Z,10.43
2019-03-08T00:36:42.710Z,10.43
2019-03-08T00:39:13.070Z,10.44
2019-03-08T00:41:43.295Z,10.37
2019-03-08T00:44:13.573Z,10.29
2019-03-08T00:46:43.844Z,10.34
2019-03-08T00:49:14.050Z,10.14
2019-03-08T00:51:44.201Z,10.22
2019-03-08T00:54:14.715Z,10.09
2019-03-08T00:56:44.766Z,10.07
2019-03-08T00:59:15.082Z,9.96
2019-03-08T01:01:46.319Z,10.11
2019-03-08T01:04:16.040Z,9.96
2019-03-08T01:06:45.851Z,10.42
2019-03-08T01:09:16.760Z,10.08
2019-03-08T01:11:46.300Z,10.00
2019-03-08T01:14:16.397Z,10.05
2019-03-08T01:16:46.578Z,9.85
2019-03-08T01:19:16.903Z,9.77
2019-03-08T01:21:47.151Z,9.64
2019-03-08T01:24:17.951Z,9.57
2019-03-08T01:26:48.168Z,9.53
2019-03-08T01:29:18.031Z,9.48
2019-03-08T01:31:48.269Z,9.45
2019-03-08T01:34:18.666Z,9.36
2019-03-08T01:36:48.774Z,9.22
2019-03-08T01:39:19.036Z,9.17
2019-03-08T01:41:49.337Z,9.43
2019-03-08T01:44:19.599Z,9.09
2019-03-08T01:46:49.831Z,9.10
2019-03-08T01:49:19.972Z,8.99
2019-03-08T01:51:50.341Z,8.87
2019-03-08T01:54:20.550Z,8.80
2019-03-08T01:56:51.224Z,8.75
2019-03-08T01:59:21.267Z,8.59
2019-03-08T02:01:51.302Z,8.49
2019-03-08T02:04:21.518Z,8.39
2019-03-08T02:06:51.844Z,8.39
2019-03-08T02:09:21.827Z,8.26
2019-03-08T02:11:52.216Z,8.25
2019-03-08T02:14:22.482Z,8.22
2019-03-08T02:16:52.670Z,8.17
2019-03-08T02:19:22.868Z,8.14
2019-03-08T02:21:53.147Z,8.27
2019-03-08T02:24:23.597Z,8.09
2019-03-08T02:26:53.810Z,8.04
2019-03-08T02:29:24.135Z,7.94
2019-03-08T02:31:54.321Z,7.86
2019-03-08T02:34:24.782Z,7.89
2019-03-08T02:36:54.909Z,7.69
2019-03-08T02:39:25.059Z,7.66
2019-03-08T02:41:55.322Z,7.73
2019-03-08T02:44:25.620Z,7.55
2019-03-08T02:46:55.835Z,7.52
2019-03-08T02:49:26.042Z,7.45
2019-03-08T02:51:56.384Z,7.36
2019-03-08T02:54:26.670Z,7.41
2019-03-08T02:56:56.915Z,7.36
2019-03-08T02:59:26.965Z,7.24
2019-03-08T03:01:57.272Z,7.16
2019-03-08T03:04:27.795Z,7.10
2019-03-08T03:06:59.641Z,7.10
2019-03-08T03:09:29.132Z,7.05
2019-03-08T03:11:58.725Z,7.01
2019-03-08T03:14:28.522Z,6.96
2019-03-08T03:16:58.944Z,6.89
2019-03-08T03:19:29.044Z,6.93
2019-03-08T03:21:59.349Z,6.95
2019-03-08T03:27:56.032Z,6.82
2019-03-08T03:30:25.718Z,6.75
2019-03-08T03:32:55.259Z,6.73
2019-03-08T03:35:24.799Z,6.78
2019-03-08T03:37:54.301Z,6.77
2019-03-08T03:40:23.800Z,6.75
2019-03-08T03:42:53.344Z,6.73
2019-03-08T03:45:22.967Z,6.68
2019-03-08T03:47:52.610Z,6.63
2019-03-08T03:50:22.270Z,6.66
2019-03-08T03:52:51.716Z,6.64
2019-03-08T03:55:21.301Z,6.63
2019-03-08T03:57:50.829Z,6.69
2019-03-08T04:00:21.974Z,6.54
2019-03-08T04:02:53.697Z,6.48
2019-03-08T04:05:22.518Z,6.50
2019-03-08T04:07:51.902Z,6.50
2019-03-08T04:10:21.475Z,6.54
2019-03-08T04:12:50.877Z,6.50
2019-03-08T04:15:21.524Z,6.47
2019-03-08T04:17:51.055Z,6.49
2019-03-08T04:20:21.088Z,6.52
2019-03-08T04:22:50.587Z,6.61
2019-03-08T04:25:20.129Z,6.44
2019-03-08T04:27:49.622Z,6.48
2019-03-08T04:30:21.105Z,6.47
2019-03-08T04:32:51.614Z,6.36
2019-03-08T04:35:21.146Z,6.38
2019-03-08T04:37:50.610Z,6.37
2019-03-08T04:40:20.112Z,6.41
2019-03-08T04:42:49.601Z,6.48
2019-03-08T04:45:20.120Z,6.42
2019-03-08T04:47:49.617Z,6.46
2019-03-08T04:50:19.121Z,6.58
2019-03-08T04:52:48.642Z,6.54
2019-03-08T04:55:20.897Z,6.50
2019-03-08T04:57:51.078Z,6.44
2019-03-08T05:00:21.362Z,6.41
2019-03-08T05:02:50.891Z,6.39
2019-03-08T05:05:20.487Z,6.32
2019-03-08T05:07:50.036Z,6.36
2019-03-08T05:10:20.725Z,6.33
2019-03-08T05:12:50.672Z,6.44
2019-03-08T05:15:20.169Z,6.41
2019-03-08T05:17:49.587Z,6.46
2019-03-08T05:20:19.107Z,6.43
2019-03-08T05:22:48.690Z,6.53
2019-03-08T05:25:18.424Z,6.51
2019-03-08T05:27:47.929Z,6.48
2019-03-08T05:30:17.997Z,6.54
2019-03-08T05:32:47.649Z,6.59
2019-03-08T05:35:17.226Z,6.60
2019-03-08T05:37:46.899Z,6.66
2019-03-08T05:40:16.627Z,6.73
2019-03-08T05:42:46.130Z,6.78
2019-03-08T05:45:15.878Z,6.87
2019-03-08T05:47:45.422Z,6.96
2019-03-08T05:50:14.999Z,7.00
2019-03-08T05:52:45.201Z,7.03
2019-03-08T05:55:15.302Z,7.08
2019-03-08T05:57:45.587Z,7.29
2019-03-08T06:00:34.577Z,7.27
2019-03-08T06:03:06.088Z,7.35
2019-03-08T06:05:35.516Z,7.58
2019-03-08T06:08:06.903Z,7.81
2019-03-08T06:10:37.739Z,7.95
2019-03-08T06:13:08.251Z,8.18
2019-03-08T06:15:38.943Z,8.35
2019-03-08T06:18:08.462Z,8.46
2019-03-08T06:20:38.055Z,8.72
2019-03-08T06:23:07.947Z,9.09
2019-03-08T06:25:37.395Z,9.42
2019-03-08T06:28:06.821Z,9.62
2019-03-08T06:30:36.544Z,9.90
2019-03-08T06:33:06.091Z,10.04
2019-03-08T06:35:35.521Z,10.34
2019-03-08T06:38:04.970Z,10.39
2019-03-08T06:40:34.411Z,10.43
2019-03-08T06:43:03.989Z,10.42
2019-03-08T06:45:33.426Z,10.39
2019-03-08T06:48:07.394Z,10.51
2019-03-08T06:50:37.267Z,10.59
2019-03-08T06:53:06.745Z,10.62
2019-03-08T06:55:36.269Z,10.60
2019-03-08T06:58:06.007Z,10.55
2019-03-08T07:00:43.111Z,10.57
2019-03-08T07:03:12.669Z,10.57
2019-03-08T07:05:42.529Z,10.67
2019-03-08T07:08:13.607Z,10.65
2019-03-08T07:10:45.418Z,10.69
2019-03-08T07:13:17.150Z,10.72
2019-03-08T07:16:13.266Z,10.81
2019-03-08T07:19:05.361Z,10.95
2019-03-08T07:21:40.499Z,11.17
2019-03-08T07:24:27.463Z,11.42
2019-03-08T07:26:58.998Z,11.63
2019-03-08T07:29:33.144Z,11.80
2019-03-08T07:32:10.153Z,11.85
2019-03-08T07:34:46.722Z,11.92
2019-03-08T07:37:26.595Z,12.04
2019-03-08T07:40:02.468Z,12.36
2019-03-08T07:42:36.871Z,13.10
2019-03-08T07:45:28.461Z,13.72
2019-03-08T07:48:17.833Z,14.01
2019-03-08T07:51:07.179Z,13.88
2019-03-08T07:53:38.331Z,13.78
2019-03-08T07:56:15.431Z,13.76
2019-03-08T07:58:46.836Z,13.81
2019-03-08T08:01:20.786Z,14.75
2019-03-08T08:04:00.755Z,15.67
2019-03-08T08:06:35.831Z,16.53
2019-03-08T08:09:25.492Z,17.13
2019-03-08T08:12:05.385Z,17.86
2019-03-08T08:14:39.976Z,18.12
2019-03-08T08:17:15.197Z,18.49
2019-03-08T08:20:01.321Z,19.09
2019-03-08T08:22:32.608Z,19.50
2019-03-08T08:25:06.640Z,20.05
2019-03-08T08:27:47.277Z,20.52
2019-03-08T08:30:33.376Z,20.37
2019-03-08T08:33:13.288Z,20.73
2019-03-08T08:36:00.461Z,20.49
2019-03-08T08:38:37.267Z,20.66
2019-03-08T08:41:11.349Z,21.07
2019-03-08T08:43:42.587Z,21.46
2019-03-08T08:46:16.507Z,20.73
2019-03-08T08:48:47.623Z,19.76
2019-03-08T08:51:18.884Z,19.55
2019-03-08T08:53:49.940Z,18.93
2019-03-08T08:56:23.730Z,19.45
2019-03-08T08:58:57.351Z,19.34
2019-03-08T09:01:37.356Z,18.71
2019-03-08T09:04:08.566Z,18.06
2019-03-08T09:06:39.705Z,17.70
2019-03-08T09:09:13.861Z,17.25
2019-03-08T09:11:54.026Z,16.88
2019-03-08T09:14:41.253Z,16.57
2019-03-08T09:17:18.109Z,16.20
2019-03-08T09:20:05.938Z,16.01
2019-03-08T09:22:53.149Z,15.64
2019-03-08T09:25:30.290Z,15.49
2019-03-08T09:28:04.213Z,15.43
2019-03-08T09:30:35.720Z,15.36
2019-03-08T09:33:12.804Z,15.06
2019-03-08T09:35:53.111Z,14.97
2019-03-08T09:38:25.313Z,14.90
2019-03-08T09:41:14.423Z,14.79
2019-03-08T09:43:54.697Z,14.80
2019-03-08T09:46:25.981Z,14.76
2019-03-08T09:49:06.233Z,14.69
2019-03-08T09:51:46.659Z,14.55
2019-03-08T09:54:20.845Z,14.42
2019-03-08T09:57:01.178Z,14.43
2019-03-08T09:59:32.365Z,14.31
2019-03-08T10:02:09.010Z,14.22
2019-03-08T10:04:49.119Z,14.22
2019-03-08T10:07:21.447Z,14.08
2019-03-08T10:09:57.215Z,14.21
2019-03-08T10:12:43.484Z,14.30
2019-03-08T10:15:32.103Z,14.41
2019-03-08T10:18:19.587Z,14.42
2019-03-08T10:21:07.912Z,14.41
2019-03-08T10:23:44.536Z,14.58
2019-03-08T10:26:31.712Z,14.82
2019-03-08T10:29:11.677Z,14.95
2019-03-08T10:31:48.975Z,15.32
2019-03-08T10:34:28.848Z,15.53
2019-03-08T10:36:59.999Z,15.68
2019-03-08T10:39:36.958Z,15.82
2019-03-08T10:42:08.354Z,16.02
2019-03-08T10:44:41.889Z,16.56
2019-03-08T10:47:22.021Z,17.20
2019-03-08T10:50:07.935Z,17.55
2019-03-08T10:52:39.079Z,17.60
2019-03-08T10:55:28.364Z,17.55
2019-03-08T10:58:05.441Z,18.16
2019-03-08T11:00:42.427Z,19.05
2019-03-08T11:03:16.832Z,20.05
2019-03-08T11:06:04.367Z,21.29
2019-03-08T11:08:35.717Z,21.97
2019-03-08T11:11:15.816Z,21.90
2019-03-08T11:14:03.507Z,21.87
2019-03-08T11:16:43.504Z,21.63
2019-03-08T11:19:27.759Z,21.90
2019-03-08T11:22:11.577Z,22.48
2019-03-08T11:24:51.544Z,22.27
2019-03-08T11:27:22.641Z,22.21
2019-03-08T11:29:56.417Z,22.69
2019-03-08T11:32:42.893Z,22.78
2019-03-08T11:35:17.099Z,22.35
2019-03-08T11:37:51.723Z,22.07
2019-03-08T11:40:29.091Z,21.90
2019-03-08T11:43:12.444Z,21.39
2019-03-08T11:45:43.628Z,21.35
2019-03-08T11:48:31.130Z,20.95
2019-03-08T11:51:18.338Z,20.55
2019-03-08T11:53:56.262Z,20.38
2019-03-08T11:56:27.857Z,21.04
2019-03-08T11:59:15.066Z,22.30
2019-03-08T12:01:49.416Z,22.30
2019-03-08T12:04:22.325Z,22.65
2019-03-08T12:06:59.451Z,22.65
2019-03-08T12:09:40.665Z,22.56
2019-03-08T12:12:14.779Z,23.08
2019-03-08T12:15:02.061Z,22.63
2019-03-08T12:17:33.314Z,22.43
2019-03-08T12:20:19.845Z,22.80
2019-03-08T12:22:53.483Z,22.91
2019-03-08T12:25:41.054Z,23.71
2019-03-08T12:28:13.340Z,24.90
2019-03-08T12:31:00.116Z,24.95
2019-03-08T12:33:34.192Z,24.53
2019-03-08T12:36:25.967Z,23.88
2019-03-08T12:39:13.372Z,22.82
2019-03-08T12:41:44.445Z,22.73
2019-03-08T12:44:30.872Z,21.42
2019-03-08T12:47:16.989Z,20.33
2019-03-08T12:49:50.827Z,20.01
2019-03-08T12:52:40.137Z,20.03
2019-03-08T12:55:27.985Z,19.86
2019-03-08T12:58:04.910Z,19.47
2019-03-08T13:00:44.963Z,19.27
2019-03-08T13:03:32.149Z,19.64
2019-03-08T13:06:09.476Z,20.80
2019-03-08T13:08:46.404Z,21.51
2019-03-08T13:11:16.145Z,22.08
2019-03-08T13:13:45.723Z,22.13
2019-03-08T13:16:15.233Z,22.21
2019-03-08T13:18:44.704Z,22.33
2019-03-08T13:21:14.258Z,22.43
2019-03-08T13:23:43.717Z,22.82
2019-03-08T13:26:13.141Z,23.01
2019-03-08T13:28:42.659Z,22.98
2019-03-08T13:31:12.103Z,23.23
2019-03-08T13:33:41.710Z,23.64
2019-03-08T13:36:11.106Z,23.97
2019-03-08T13:38:40.700Z,23.89
2019-03-08T13:41:10.126Z,24.20
2019-03-08T13:43:40.914Z,23.90
2019-03-08T13:46:10.346Z,23.40
2019-03-08T13:48:39.919Z,22.53
2019-03-08T13:51:09.508Z,22.52
2019-03-08T13:53:38.945Z,22.28
2019-03-08T13:56:08.414Z,21.66
2019-03-08T13:58:38.049Z,21.11
2019-03-08T14:01:07.551Z,21.58
2019-03-08T14:03:36.981Z,21.28
2019-03-08T14:06:06.496Z,20.79
2019-03-08T14:08:35.997Z,20.34
2019-03-08T14:11:05.783Z,20.07
2019-03-08T14:13:35.369Z,19.32
2019-03-08T14:16:04.984Z,18.80
2019-03-08T14:18:34.496Z,18.23
2019-03-08T14:21:05.055Z,17.87
2019-03-08T14:23:34.560Z,17.32
2019-03-08T14:26:04.272Z,16.94
2019-03-08T14:28:33.842Z,16.79
2019-03-08T14:31:08.927Z,16.67
2019-03-08T14:33:38.995Z,16.54
2019-03-08T14:36:08.786Z,16.42
2019-03-08T14:38:39.304Z,16.25
2019-03-08T14:41:13.585Z,16.36
2019-03-08T14:43:49.010Z,16.45
2019-03-08T14:46:23.739Z,16.45
2019-03-08T14:48:53.261Z,16.52
2019-03-08T14:51:22.739Z,16.72
2019-03-08T14:53:52.408Z,17.03
2019-03-08T14:56:22.079Z,17.04
2019-03-08T14:58:51.666Z,17.09
2019-03-08T15:01:21.274Z,16.81
2019-03-08T15:03:52.026Z,16.59
2019-03-08T15:06:21.735Z,16.45
2019-03-08T15:08:55.081Z,16.47
2019-03-08T15:11:23.507Z,16.27
2019-03-08T15:13:57.944Z,15.88
2019-03-08T15:16:26.784Z,15.76
2019-03-08T15:18:56.384Z,15.52
2019-03-08T15:21:26.016Z,15.47
2019-03-08T15:23:56.059Z,15.61
2019-03-08T15:26:25.639Z,15.55
2019-03-08T15:28:55.252Z,15.50
2019-03-08T15:31:39.606Z,15.26
2019-03-08T15:34:09.502Z,15.16
2019-03-08T15:40:18.234Z,14.91
2019-03-08T15:46:09.676Z,14.77
2019-03-08T15:52:05.526Z,14.69
2019-03-08T15:58:00.467Z,14.59
2019-03-08T16:00:46.404Z,14.39
2019-03-08T16:06:28.214Z,13.75
2019-03-08T16:09:01.967Z,13.69
2019-03-08T16:17:31.181Z,13.50
2019-03-08T16:23:17.440Z,13.34
2019-03-08T16:25:54.462Z,13.23
2019-03-08T16:28:31.171Z,13.22
2019-03-08T16:31:15.300Z,13.16
2019-03-08T16:34:03.447Z,13.01
2019-03-08T16:36:47.190Z,12.91
2019-03-08T16:40:00.830Z,12.84
2019-03-08T16:45:50.682Z,12.85
2019-03-08T16:48:30.736Z,12.76
2019-03-08T16:51:36.038Z,12.73
2019-03-08T16:54:38.781Z,12.71
2019-03-08T16:57:32.422Z,12.61
2019-03-08T17:03:21.971Z,12.39
2019-03-08T17:09:10.892Z,12.26
2019-03-08T17:12:19.178Z,12.23
2019-03-08T17:15:21.696Z,12.25
2019-03-08T17:17:59.017Z,12.13
2019-03-08T17:20:53.180Z,11.96
2019-03-08T17:23:45.128Z,11.96
2019-03-08T17:26:40.240Z,11.88
2019-03-08T17:29:21.600Z,11.60
2019-03-08T17:32:10.291Z,11.44
2019-03-08T17:34:58.750Z,11.26
2019-03-08T17:37:32.104Z,11.17
2019-03-08T17:40:18.897Z,11.07
2019-03-08T17:43:11.689Z,10.89
2019-03-08T17:45:59.287Z,10.85
2019-03-08T17:48:31.067Z,10.81
2019-03-08T17:51:05.264Z,10.72
2019-03-08T17:53:46.122Z,10.66
2019-03-08T17:56:34.887Z,10.74
2019-03-08T17:59:06.751Z,10.67
2019-03-08T18:01:49.859Z,10.74
2019-03-08T18:04:34.087Z,10.74
2019-03-08T18:07:13.560Z,10.69
2019-03-08T18:09:58.677Z,10.66
2019-03-08T18:12:46.914Z,10.62
2019-03-08T18:15:37.993Z,10.68
2019-03-08T18:18:25.741Z,10.61
2019-03-08T18:21:07.864Z,10.59
2019-03-08T18:23:56.145Z,10.64
2019-03-08T18:26:40.220Z,10.61
2019-03-08T18:29:25.036Z,10.39
2019-03-08T18:32:07.974Z,10.39
2019-03-08T18:38:31.167Z,10.36
2019-03-08T18:41:17.879Z,10.45
2019-03-08T18:44:05.395Z,10.51
2019-03-08T18:46:50.883Z,10.31
2019-03-08T18:49:24.588Z,10.34
2019-03-08T18:52:17.057Z,10.33
2019-03-08T18:54:49.842Z,10.35
2019-03-08T18:57:37.055Z,10.36
2019-03-08T19:00:18.575Z,10.53
2019-03-08T19:02:55.451Z,10.55
2019-03-08T19:05:26.564Z,10.49
2019-03-08T19:08:10.827Z,10.54
2019-03-08T19:11:17.933Z,10.58
2019-03-08T19:14:05.334Z,10.67
2019-03-08T19:16:41.392Z,10.69
2019-03-08T19:19:15.717Z,10.72
2019-03-08T19:21:50.900Z,10.85
2019-03-08T19:24:40.465Z,10.85
2019-03-08T19:30:39.185Z,10.75
2019-03-08T19:33:22.540Z,10.73
2019-03-08T19:35:54.021Z,10.80
2019-03-08T19:38:26.751Z,10.36
2019-03-08T19:41:14.128Z,10.64
2019-03-08T19:43:57.326Z,10.40
2019-03-08T19:46:43.438Z,10.41
2019-03-08T19:49:47.188Z,10.28
2019-03-08T19:52:22.842Z,10.38
2019-03-08T19:58:36.798Z,10.18
2019-03-08T20:01:37.313Z,10.18
2019-03-08T20:08:00.256Z,10.17
2019-03-08T20:10:37.564Z,10.09
2019-03-08T20:13:27.928Z,9.86
2019-03-08T20:16:17.536Z,9.98
2019-03-08T20:22:53.659Z,9.92
2019-03-08T20:25:28.140Z,9.75
2019-03-08T20:28:05.054Z,9.78
2019-03-08T20:30:45.397Z,9.74
2019-03-08T20:33:22.453Z,9.73
2019-03-08T20:36:02.271Z,9.72
2019-03-08T20:38:46.971Z,9.64
2019-03-08T20:41:21.178Z,9.62
2019-03-08T20:43:52.409Z,9.71
2019-03-08T20:46:23.616Z,9.70
2019-03-08T20:48:53.199Z,9.51
2019-03-08T20:51:22.882Z,9.53
2019-03-08T20:53:52.600Z,9.54
2019-03-08T20:56:22.289Z,9.50
2019-03-08T20:58:52.033Z,9.54
2019-03-08T21:01:21.641Z,9.51
2019-03-08T21:03:51.200Z,9.29
2019-03-08T21:06:20.780Z,9.16
2019-03-08T21:08:50.311Z,8.99
2019-03-08T21:11:19.789Z,8.90
2019-03-08T21:13:49.319Z,8.83
2019-03-08T21:16:18.960Z,8.66
2019-03-08T21:18:48.571Z,8.71
2019-03-08T21:21:18.149Z,8.52
2019-03-08T21:23:47.774Z,8.54
2019-03-08T21:26:17.533Z,8.30
2019-03-08T21:28:47.180Z,8.36
2019-03-08T21:31:16.744Z,8.35
2019-03-08T21:33:46.373Z,8.45
2019-03-08T21:36:16.502Z,8.42
2019-03-08T21:38:46.228Z,8.34
2019-03-08T21:41:15.848Z,8.45
2019-03-08T21:43:45.472Z,8.49
2019-03-08T21:46:15.168Z,8.39
2019-03-08T21:48:44.925Z,8.33
2019-03-08T21:51:14.701Z,8.50
2019-03-08T21:53:44.511Z,8.37
2019-03-08T21:56:14.174Z,7.81
2019-03-08T21:58:43.696Z,7.95
2019-03-08T22:01:13.228Z,7.89
2019-03-08T22:03:44.448Z,7.91
2019-03-08T22:06:14.049Z,8.11
2019-03-08T22:08:51.120Z,8.02
2019-03-08T22:11:22.268Z,8.13
2019-03-08T22:13:56.212Z,8.09
2019-03-08T22:16:25.759Z,7.96
2019-03-08T22:18:55.256Z,8.01
2019-03-08T22:21:30.519Z,8.06
2019-03-08T22:24:00.967Z,8.16
2019-03-08T22:26:44.773Z,8.09
2019-03-08T22:29:30.150Z,8.09
2019-03-08T22:32:01.764Z,8.29
2019-03-08T22:34:31.875Z,8.10
2019-03-08T22:37:02.371Z,8.10
2019-03-08T22:39:31.969Z,7.95
2019-03-08T22:42:01.612Z,7.96
2019-03-08T22:44:31.141Z,7.86
2019-03-08T22:47:00.748Z,7.86
2019-03-08T22:49:30.178Z,7.94
2019-03-08T22:52:03.307Z,7.93
2019-03-08T22:54:32.934Z,7.99
2019-03-08T22:57:02.437Z,7.86
2019-03-08T22:59:32.018Z,7.67
2019-03-08T23:02:07.027Z,7.77
2019-03-08T23:04:36.733Z,7.81
2019-03-08T23:07:07.092Z,7.83
2019-03-08T23:09:37.867Z,7.84
2019-03-08T23:12:07.500Z,7.85
2019-03-08T23:14:38.110Z,7.85
2019-03-08T23:17:07.647Z,7.88
2019-03-08T23:19:37.707Z,7.88
2019-03-08T23:22:07.441Z,7.96
2019-03-08T23:24:37.071Z,8.03
2019-03-08T23:27:17.507Z,7.97
2019-03-08T23:29:51.779Z,7.80
2019-03-08T23:32:28.739Z,7.83
2019-03-08T23:34:58.758Z,7.92
2019-03-08T23:37:28.276Z,7.86
2019-03-08T23:39:58.854Z,7.86
2019-03-08T23:42:28.721Z,7.82
2019-03-08T23:44:58.290Z,7.84
2019-03-08T23:47:28.530Z,7.88
2019-03-08T23:49:58.740Z,8.06
2019-03-08T23:52:28.191Z,8.01
2019-03-08T23:54:58.167Z,8.02
2019-03-08T23:57:27.715Z,8.00
2019-03-08T23:59:57.303Z,8.07
